Time;durP1;ratioP1;P1;durP2;ratioP2;P2;SDS_P1;SDS_P2;PMS_P1;PMS_P2;Temp;Humidity;BMP_temperature;BMP_pressure;BME280_temperature;BME280_humidity;BME280_pressure;Samples;Min_cycle;Max_cycle;Signal;HPM_P1;HPM_P2
2022/07/04 00:00:04;;;;;;;;;;;;;;;16.96;100.00;101184.00;4907767;29;19939;-82
2022/07/04 00:02:30;;;;;;;;;;;;;;;16.93;100.00;101197.22;4908138;29;19907;-82
2022/07/04 00:04:55;;;;;;;;;;;;;;;16.91;100.00;101200.97;4924269;29;19942;-81
2022/07/04 00:07:20;;;;;;;;;;;;;;;16.93;100.00;101202.66;4924055;29;19924;-82
2022/07/04 00:09:46;;;;;;;;;;;;;;;16.91;100.00;101198.25;4923950;29;20073;-83
2022/07/04 00:12:11;;;;;;;;;;;;;;;16.89;100.00;101211.28;4907504;29;19912;-82
2022/07/04 00:14:37;;;;;;;;;;;;;;;16.89;100.00;101207.72;4924327;29;19915;-82
2022/07/04 00:17:02;;;;;;;;;;;;;;;16.86;100.00;101205.47;4906949;29;19930;-81
2022/07/04 00:19:28;;;;;;;;;;;;;;;16.85;100.00;101188.34;4920542;29;19919;-81
2022/07/04 00:21:53;;;;;;;;;;;;;;;16.90;100.00;101185.75;4923853;29;19931;-82
2022/07/04 00:24:18;;;;;;;;;;;;;;;16.95;100.00;101203.25;4907068;29;19970;-82
2022/07/04 00:26:44;;;;;;;;;;;;;;;17.08;100.00;101217.47;4907455;29;19982;-82
2022/07/04 00:29:09;;;;;;;;;;;;;;;17.13;100.00;101220.31;4905449;29;19918;-82
2022/07/04 00:31:35;;;;;;;;;;;;;;;17.16;100.00;101213.59;4906663;29;19903;-82
2022/07/04 00:34:01;;;;;;;;;;;;;;;17.05;100.00;101228.81;4905165;29;19998;-81
2022/07/04 00:36:26;;;;;;;;;;;;;;;16.86;100.00;101229.94;4917169;29;19943;-81
2022/07/04 00:38:52;;;;;;;;;;;;;;;16.65;100.00;101237.50;4918436;29;19926;-80
2022/07/04 00:41:20;;;;;;;;;;;;;;;16.48;100.00;101232.91;4904310;29;19930;-80
2022/07/04 00:43:59;;;;;;;;;;;;;;;16.29;100.00;101213.91;4916474;29;19920;-81
2022/07/04 00:46:24;;;;;;;;;;;;;;;16.15;100.00;101217.81;4884842;29;19916;-80
2022/07/04 00:48:49;;;;;;;;;;;;;;;16.05;100.00;101210.19;4897124;29;19928;-81
2022/07/04 00:51:15;;;;;;;;;;;;;;;16.02;100.00;101202.50;4898770;29;19931;-80
2022/07/04 00:53:40;;;;;;;;;;;;;;;15.97;100.00;101195.03;4897449;29;19928;-80
2022/07/04 00:56:06;;;;;;;;;;;;;;;15.85;100.00;101196.00;4898611;29;19975;-80
2022/07/04 00:58:32;;;;;;;;;;;;;;;15.78;100.00;101192.53;4897765;29;19916;-79
2022/07/04 01:00:57;;;;;;;;;;;;;;;15.70;100.00;101196.38;4897432;29;19931;-80
2022/07/04 01:03:23;;;;;;;;;;;;;;;15.70;100.00;101190.94;4897678;29;19927;-80
2022/07/04 01:05:48;;;;;;;;;;;;;;;15.77;100.00;101189.00;4904812;29;19975;-80
2022/07/04 01:08:14;;;;;;;;;;;;;;;15.75;100.00;101180.25;4899422;29;19927;-81
2022/07/04 01:10:40;;;;;;;;;;;;;;;15.74;100.00;101186.72;4899453;29;19907;-81
2022/07/04 01:13:05;;;;;;;;;;;;;;;15.81;100.00;101176.63;4901553;29;19994;-81
2022/07/04 01:15:31;;;;;;;;;;;;;;;15.87;100.00;101177.63;4901567;29;19922;-81
2022/07/04 01:17:56;;;;;;;;;;;;;;;15.86;100.00;101163.25;4902789;29;19916;-81
2022/07/04 01:20:22;;;;;;;;;;;;;;;15.91;100.00;101163.38;4913905;29;19915;-81
2022/07/04 01:22:47;;;;;;;;;;;;;;;15.85;100.00;101158.03;4918522;29;19955;-80
2022/07/04 01:25:34;;;;;;;;;;;;;;;15.90;100.00;101150.88;4903603;29;19923;-81
2022/07/04 01:28:00;;;;;;;;;;;;;;;16.01;100.00;101153.88;4898400;29;19972;-81
2022/07/04 01:30:26;;;;;;;;;;;;;;;16.02;100.00;101145.50;4897168;29;19923;-80
2022/07/04 01:32:54;;;;;;;;;;;;;;;16.05;100.00;101144.22;4902223;29;20002;-81
2022/07/04 01:35:20;;;;;;;;;;;;;;;16.07;100.00;101152.97;4901206;29;19920;-82
2022/07/04 01:37:46;;;;;;;;;;;;;;;16.14;100.00;101145.59;4900691;29;19920;-80
2022/07/04 01:40:12;;;;;;;;;;;;;;;16.22;100.00;101158.84;4899663;29;19947;-80
2022/07/04 01:42:40;;;;;;;;;;;;;;;16.20;100.00;101164.50;4899965;29;19938;-81
2022/07/04 01:45:06;;;;;;;;;;;;;;;16.16;100.00;101167.91;4899292;29;19922;-81
2022/07/04 01:47:32;;;;;;;;;;;;;;;16.13;100.00;101168.38;4900317;29;19916;-81
2022/07/04 01:49:57;;;;;;;;;;;;;;;16.11;100.00;101171.28;4900338;29;19916;-81
2022/07/04 01:52:22;;;;;;;;;;;;;;;16.09;100.00;101165.28;4899373;29;19924;-81
2022/07/04 01:54:48;;;;;;;;;;;;;;;16.06;100.00;101175.72;4899426;29;19932;-81
2022/07/04 01:57:13;;;;;;;;;;;;;;;16.04;100.00;101164.28;4900334;29;19900;-81
2022/07/04 02:02:23;;;;;;;;;;;;;;;15.95;100.00;101164.56;4882617;29;19970;-81
2022/07/04 02:04:49;;;;;;;;;;;;;;;15.95;100.00;101161.84;4882160;29;19904;-81
2022/07/04 02:07:15;;;;;;;;;;;;;;;15.94;100.00;101157.50;4882293;29;19916;-80
2022/07/04 02:09:40;;;;;;;;;;;;;;;15.94;100.00;101160.22;4887767;29;19916;-81
2022/07/04 02:14:50;;;;;;;;;;;;;;;15.94;100.00;101165.63;4903992;29;19915;-82
2022/07/04 02:17:15;;;;;;;;;;;;;;;15.92;100.00;101170.44;4900638;29;19916;-80
2022/07/04 02:19:41;;;;;;;;;;;;;;;15.79;100.00;101175.19;4901912;29;19916;-81
2022/07/04 02:22:06;;;;;;;;;;;;;;;15.81;100.00;101165.78;4901030;29;19911;-82
2022/07/04 02:24:32;;;;;;;;;;;;;;;15.78;100.00;101168.94;4900973;29;19956;-81
2022/07/04 02:26:57;;;;;;;;;;;;;;;15.78;100.00;101173.53;4901207;29;19920;-81
2022/07/04 02:29:25;;;;;;;;;;;;;;;15.75;100.00;101172.09;4901906;29;19900;-82
2022/07/04 02:31:51;;;;;;;;;;;;;;;15.70;100.00;101170.06;4901298;29;20286;-81
2022/07/04 02:34:17;;;;;;;;;;;;;;;15.65;100.00;101174.47;4900538;29;20397;-82
2022/07/04 02:36:42;;;;;;;;;;;;;;;15.63;100.00;101168.44;4901193;29;19927;-82
2022/07/04 02:39:08;;;;;;;;;;;;;;;15.60;100.00;101172.44;4895306;29;19924;-81
2022/07/04 02:41:33;;;;;;;;;;;;;;;15.59;100.00;101165.34;4914737;29;19927;-81
2022/07/04 02:43:59;;;;;;;;;;;;;;;15.56;100.00;101168.50;4902092;29;19979;-81
2022/07/04 02:46:28;;;;;;;;;;;;;;;15.52;100.00;101165.41;4900848;29;19904;-81
2022/07/04 02:48:53;;;;;;;;;;;;;;;15.51;100.00;101171.06;4901072;29;19916;-81
2022/07/04 02:51:19;;;;;;;;;;;;;;;15.47;100.00;101170.69;4901098;29;19900;-81
2022/07/04 02:53:44;;;;;;;;;;;;;;;15.46;100.00;101169.03;4899437;29;19924;-82
2022/07/04 02:56:10;;;;;;;;;;;;;;;15.43;100.00;101165.91;4899571;29;19951;-81
2022/07/04 02:58:35;;;;;;;;;;;;;;;15.43;100.00;101163.19;4900318;29;19916;-81
2022/07/04 03:01:20;;;;;;;;;;;;;;;15.44;100.00;101162.16;4915949;29;19904;-82
2022/07/04 03:03:50;;;;;;;;;;;;;;;15.44;100.00;101160.28;4900886;29;19916;-81
2022/07/04 03:06:19;;;;;;;;;;;;;;;15.43;100.00;101158.63;4899959;29;19924;-82
2022/07/04 03:08:44;;;;;;;;;;;;;;;15.45;100.00;101144.81;4900741;29;19916;-81
2022/07/04 03:11:10;;;;;;;;;;;;;;;15.47;100.00;101148.16;4901379;29;19920;-82
2022/07/04 03:13:39;;;;;;;;;;;;;;;15.49;100.00;101152.28;4903093;29;20005;-81
2022/07/04 03:16:05;;;;;;;;;;;;;;;15.51;100.00;101144.75;4902767;29;19915;-81
2022/07/04 03:18:30;;;;;;;;;;;;;;;15.55;100.00;101138.91;4903915;29;19916;-81
2022/07/04 03:20:56;;;;;;;;;;;;;;;15.57;100.00;101136.81;4903792;29;19904;-81
2022/07/04 03:23:22;;;;;;;;;;;;;;;15.56;100.00;101137.84;4905704;29;19972;-82
2022/07/04 03:25:50;;;;;;;;;;;;;;;15.51;100.00;101133.91;4918929;29;19920;-81
2022/07/04 03:28:16;;;;;;;;;;;;;;;15.51;100.00;101138.50;4904320;29;19963;-81
2022/07/04 03:30:41;;;;;;;;;;;;;;;15.50;100.00;101134.97;4904377;29;19915;-80
2022/07/04 03:33:07;;;;;;;;;;;;;;;15.50;100.00;101134.97;4903669;29;19971;-81
2022/07/04 03:35:32;;;;;;;;;;;;;;;15.52;100.00;101140.16;4904431;29;19916;-81
2022/07/04 03:37:59;;;;;;;;;;;;;;;15.57;100.00;101136.81;4904721;29;19920;-81
2022/07/04 03:40:26;;;;;;;;;;;;;;;15.61;100.00;101143.44;4905387;29;19924;-82
2022/07/04 03:42:51;;;;;;;;;;;;;;;15.65;100.00;101134.59;4905902;29;19924;-82
2022/07/04 03:45:16;;;;;;;;;;;;;;;15.68;100.00;101127.94;4904312;29;19920;-82
2022/07/04 03:47:42;;;;;;;;;;;;;;;15.69;100.00;101135.88;4905237;29;19916;-82
2022/07/04 03:50:08;;;;;;;;;;;;;;;15.76;100.00;101143.94;4897999;29;19920;-82
2022/07/04 03:52:33;;;;;;;;;;;;;;;15.82;100.00;101144.91;4903455;29;19916;-82
2022/07/04 03:54:58;;;;;;;;;;;;;;;15.88;100.00;101133.97;4904202;29;19936;-82
2022/07/04 03:57:24;;;;;;;;;;;;;;;15.94;100.00;101133.06;4904972;29;19941;-82
2022/07/04 03:59:49;;;;;;;;;;;;;;;15.99;100.00;101135.09;4904362;29;19924;-82
2022/07/04 04:02:15;;;;;;;;;;;;;;;16.02;100.00;101131.94;4905071;29;19904;-81
2022/07/04 04:07:24;;;;;;;;;;;;;;;16.06;100.00;101132.31;4886676;29;19933;-82
2022/07/04 04:09:50;;;;;;;;;;;;;;;16.08;100.00;101120.16;4885655;29;19959;-82
2022/07/04 04:12:15;;;;;;;;;;;;;;;16.11;100.00;101121.59;4911824;29;19912;-82
2022/07/04 04:14:43;;;;;;;;;;;;;;;16.12;100.00;101121.34;4887078;29;19904;-82
2022/07/04 04:17:09;;;;;;;;;;;;;;;16.16;100.00;101127.19;4886321;29;19924;-81
2022/07/04 04:19:34;;;;;;;;;;;;;;;16.21;100.00;101122.72;4886932;29;19927;-80
2022/07/04 04:22:00;;;;;;;;;;;;;;;16.25;100.00;101120.38;4905830;29;19931;-81
2022/07/04 04:24:26;;;;;;;;;;;;;;;16.20;100.00;101114.81;4904568;29;19912;-82
2022/07/04 04:26:51;;;;;;;;;;;;;;;16.06;100.00;101107.88;4905237;29;19944;-83
2022/07/04 04:29:17;;;;;;;;;;;;;;;16.08;100.00;101122.06;4905037;29;19924;-82
2022/07/04 04:31:42;;;;;;;;;;;;;;;16.23;100.00;101117.06;4904723;29;19915;-81
2022/07/04 04:34:07;;;;;;;;;;;;;;;16.36;100.00;101124.22;4899223;29;19943;-83
2022/07/04 04:36:33;;;;;;;;;;;;;;;16.41;100.00;101119.72;4894036;29;19943;-81
2022/07/04 04:38:58;;;;;;;;;;;;;;;16.44;100.00;101123.88;4906626;29;19907;-82
2022/07/04 04:41:24;;;;;;;;;;;;;;;16.42;100.00;101121.41;4903701;29;19931;-81
2022/07/04 04:43:49;;;;;;;;;;;;;;;16.41;100.00;101133.31;4902514;29;19915;-82
2022/07/04 04:46:15;;;;;;;;;;;;;;;16.35;100.00;101128.78;4905278;29;19928;-82
2022/07/04 04:48:40;;;;;;;;;;;;;;;16.39;100.00;101130.00;4904674;29;19924;-82
2022/07/04 04:51:07;;;;;;;;;;;;;;;16.42;100.00;101135.00;4904128;29;19948;-82
2022/07/04 04:53:32;;;;;;;;;;;;;;;16.44;100.00;101135.56;4905325;29;19928;-82
2022/07/04 04:55:58;;;;;;;;;;;;;;;16.40;100.00;101136.28;4906497;29;20014;-82
2022/07/04 04:58:23;;;;;;;;;;;;;;;16.36;100.00;101140.50;4905927;29;19935;-82
2022/07/04 05:00:49;;;;;;;;;;;;;;;16.35;100.00;101139.66;4917132;29;19926;-81
2022/07/04 05:03:18;;;;;;;;;;;;;;;16.37;100.00;101134.84;4905996;29;19899;-82
2022/07/04 05:05:44;;;;;;;;;;;;;;;16.43;100.00;101138.53;4904891;29;19900;-82
2022/07/04 05:08:09;;;;;;;;;;;;;;;16.51;100.00;101135.47;4899226;29;19935;-81
2022/07/04 05:10:36;;;;;;;;;;;;;;;16.61;100.00;101140.34;4919859;29;19903;-83
2022/07/04 05:13:03;;;;;;;;;;;;;;;16.68;100.00;101135.66;4920160;29;20022;-79
2022/07/04 05:15:29;;;;;;;;;;;;;;;16.71;100.00;101142.53;4916318;29;19919;-84
2022/07/04 05:17:54;;;;;;;;;;;;;;;16.69;100.00;101145.47;4916449;29;19900;-81
2022/07/04 05:20:20;;;;;;;;;;;;;;;16.71;100.00;101142.53;4906044;29;19928;-81
2022/07/04 05:22:46;;;;;;;;;;;;;;;16.79;100.00;101151.22;4905787;29;19923;-81
2022/07/04 05:25:11;;;;;;;;;;;;;;;16.84;100.00;101154.03;4906279;29;19912;-83
2022/07/04 05:27:37;;;;;;;;;;;;;;;16.85;100.00;101155.72;4920950;29;19922;-80
2022/07/04 05:30:02;;;;;;;;;;;;;;;17.12;100.00;101158.03;4921221;29;19922;-80
2022/07/04 05:32:28;;;;;;;;;;;;;;;17.29;100.00;101153.56;4931560;29;19966;-82
2022/07/04 05:34:54;;;;;;;;;;;;;;;17.29;100.00;101153.56;4923141;29;19955;-81
2022/07/04 05:37:20;;;;;;;;;;;;;;;17.25;100.00;101154.25;4924086;29;19943;-81
2022/07/04 05:39:49;;;;;;;;;;;;;;;17.30;100.00;101162.53;4887548;29;19924;-81
2022/07/04 05:42:14;;;;;;;;;;;;;;;17.82;100.00;101162.69;4902905;29;19962;-82
2022/07/04 05:44:40;;;;;;;;;;;;;;;18.45;100.00;101159.09;4918186;29;19899;-82
2022/07/04 05:47:05;;;;;;;;;;;;;;;18.89;100.00;101159.38;4887498;29;19912;-81
2022/07/04 05:49:31;;;;;;;;;;;;;;;19.04;100.00;101166.19;4886321;29;19923;-82
2022/07/04 05:51:56;;;;;;;;;;;;;;;19.22;100.00;101169.50;4906203;29;19941;-81
2022/07/04 05:54:22;;;;;;;;;;;;;;;19.09;100.00;101174.47;4922581;29;19928;-82
2022/07/04 05:56:47;;;;;;;;;;;;;;;18.95;100.00;101171.22;4930190;29;19915;-82
2022/07/04 05:59:13;;;;;;;;;;;;;;;18.87;100.00;101174.34;4921083;29;19915;-82
2022/07/04 06:01:39;;;;;;;;;;;;;;;18.91;100.00;101172.78;4904670;29;19931;-80
2022/07/04 06:04:05;;;;;;;;;;;;;;;18.87;100.00;101172.44;4904908;29;19966;-81
2022/07/04 06:06:30;;;;;;;;;;;;;;;18.89;100.00;101164.03;4904727;29;19919;-82
2022/07/04 06:08:56;;;;;;;;;;;;;;;18.98;100.00;101168.81;4905493;29;20265;-81
2022/07/04 06:11:22;;;;;;;;;;;;;;;18.96;100.00;101165.50;4905688;29;19947;-81
2022/07/04 06:13:47;;;;;;;;;;;;;;;19.21;100.00;101164.31;4920613;29;19935;-81
2022/07/04 06:16:13;;;;;;;;;;;;;;;19.48;100.00;101164.47;4904397;29;19915;-81
2022/07/04 06:18:38;;;;;;;;;;;;;;;19.70;100.00;101165.38;4902889;29;19911;-82
2022/07/04 06:21:04;;;;;;;;;;;;;;;19.84;100.00;101168.56;4919830;29;19912;-82
2022/07/04 06:23:29;;;;;;;;;;;;;;;19.88;100.00;101169.72;4907717;29;19952;-82
2022/07/04 06:25:54;;;;;;;;;;;;;;;19.76;100.00;101179.09;4909009;29;19915;-81
2022/07/04 06:28:20;;;;;;;;;;;;;;;19.77;100.00;101173.38;4906118;29;19934;-81
2022/07/04 06:30:45;;;;;;;;;;;;;;;20.10;100.00;101172.47;4921162;29;19934;-82
2022/07/04 06:33:11;;;;;;;;;;;;;;;19.73;100.00;101125.78;4925846;29;19907;-82
2022/07/04 06:35:46;;;;;;;;;;;;;;;19.66;100.00;101179.75;4905366;29;20385;-81
2022/07/04 06:38:14;;;;;;;;;;;;;;;19.75;100.00;101174.72;4907702;29;19931;-82
2022/07/04 06:40:40;;;;;;;;;;;;;;;19.87;100.00;101175.44;4906192;29;19920;-83
2022/07/04 06:43:06;;;;;;;;;;;;;;;20.29;100.00;101170.22;4906151;29;19950;-82
2022/07/04 06:45:33;;;;;;;;;;;;;;;20.48;100.00;101181.66;4902146;29;19919;-80
2022/07/04 06:47:59;;;;;;;;;;;;;;;20.47;100.00;101171.81;4929737;29;19922;-82
2022/07/04 06:50:24;;;;;;;;;;;;;;;20.09;100.00;101173.53;4929453;29;19958;-81
2022/07/04 06:52:49;;;;;;;;;;;;;;;19.83;100.00;101174.25;4916310;29;19903;-82
2022/07/04 06:55:15;;;;;;;;;;;;;;;19.69;100.00;101168.34;5093848;23;19933;-81
2022/07/04 07:00:15;;;;;;;;;;;;;;;19.53;100.00;101172.72;5566678;23;19938;-81
2022/07/04 07:02:41;;;;;;;;;;;;;;;19.30;100.00;101164.69;4943476;29;19970;-83
2022/07/04 07:05:10;;;;;;;;;;;;;;;19.71;100.00;101166.19;4926177;29;19908;-83
2022/07/04 07:07:35;;;;;;;;;;;;;;;20.10;100.00;101164.28;4925519;29;19914;-82
2022/07/04 07:10:02;;;;;;;;;;;;;;;20.24;100.00;101166.63;4989000;23;19931;-82
2022/07/04 07:12:28;;;;;;;;;;;;;;;20.32;100.00;101171.63;4923589;29;19913;-81
2022/07/04 07:14:54;;;;;;;;;;;;;;;20.23;100.00;101164.94;4925787;29;19923;-82
2022/07/04 07:17:20;;;;;;;;;;;;;;;20.00;100.00;101164.16;4925083;29;19915;-81
2022/07/04 07:19:46;;;;;;;;;;;;;;;19.86;100.00;101160.94;4924145;29;19934;-81
2022/07/04 07:22:12;;;;;;;;;;;;;;;19.48;100.00;101126.25;4940261;29;20000;-81
2022/07/04 07:24:37;;;;;;;;;;;;;;;20.04;100.00;101165.28;4924031;29;19924;-81
2022/07/04 07:27:02;;;;;;;;;;;;;;;20.46;100.00;101161.13;4923077;29;19905;-81
2022/07/04 07:29:28;;;;;;;;;;;;;;;20.51;100.00;101170.25;4920841;29;19923;-81
2022/07/04 07:31:53;;;;;;;;;;;;;;;20.47;100.00;101166.34;4925414;29;19907;-82
2022/07/04 07:34:19;;;;;;;;;;;;;;;20.39;100.00;101169.53;4939510;29;19919;-81
2022/07/04 07:36:44;;;;;;;;;;;;;;;20.45;100.00;101171.22;4923647;29;19908;-80
2022/07/04 07:39:10;;;;;;;;;;;;;;;20.38;99.68;101176.91;4946892;29;19921;-80
2022/07/04 07:41:35;;;;;;;;;;;;;;;20.31;98.07;101179.00;4941813;29;19922;-81
2022/07/04 07:44:00;;;;;;;;;;;;;;;20.25;97.97;101182.75;4918966;29;19950;-80
2022/07/04 07:46:26;;;;;;;;;;;;;;;20.07;97.62;101181.16;4917590;29;19919;-81
2022/07/04 07:48:51;;;;;;;;;;;;;;;20.02;99.31;101178.34;4914089;29;19931;-80
2022/07/04 07:51:16;;;;;;;;;;;;;;;20.00;99.91;101177.81;4924110;29;20020;-81
2022/07/04 07:53:42;;;;;;;;;;;;;;;20.02;99.75;101172.91;4937485;29;19919;-81
2022/07/04 07:56:07;;;;;;;;;;;;;;;20.26;98.36;101180.84;4939933;29;19915;-81
2022/07/04 07:58:32;;;;;;;;;;;;;;;20.51;97.52;101181.19;4940889;29;19919;-80
2022/07/04 08:00:58;;;;;;;;;;;;;;;20.25;92.45;101171.00;4918196;29;19935;-81
2022/07/04 08:06:07;;;;;;;;;;;;;;;19.93;95.37;101179.88;4921989;29;19931;-81
2022/07/04 08:08:33;;;;;;;;;;;;;;;20.02;93.81;101181.09;4920753;29;19907;-80
2022/07/04 08:10:58;;;;;;;;;;;;;;;19.85;93.31;101181.13;4942720;29;19935;-82
2022/07/04 08:13:23;;;;;;;;;;;;;;;19.68;93.83;101183.06;4921350;29;20007;-80
2022/07/04 08:15:49;;;;;;;;;;;;;;;19.45;94.92;101184.06;4941537;29;19907;-83
2022/07/04 08:18:16;;;;;;;;;;;;;;;19.41;94.74;101183.72;5389169;23;19919;-82
2022/07/04 08:20:41;;;;;;;;;;;;;;;19.22;95.43;101174.97;4931278;29;19911;-82
2022/07/04 08:23:07;;;;;;;;;;;;;;;19.01;94.22;101179.25;5226080;23;19980;-84
2022/07/04 08:33:18;;;;;;;;;;;;;;;19.76;92.75;101176.34;5174960;23;19939;-83
2022/07/04 09:33:54;;;;;;;;;;;;;;;21.06;85.61;101188.31;6024670;23;20016;31
2022/07/04 09:48:50;;;;;;;;;;;;;;;22.10;83.16;101179.75;5273132;23;19937;-81
2022/07/04 09:51:34;;;;;;;;;;;;;;;21.94;82.89;101187.06;4989793;28;19902;-82
2022/07/04 09:56:40;;;;;;;;;;;;;;;22.32;80.81;101180.41;4934806;29;19912;-82
2022/07/04 09:59:06;;;;;;;;;;;;;;;22.14;80.85;101186.34;4906172;29;19930;-82
2022/07/04 10:01:31;;;;;;;;;;;;;;;22.02;81.92;101183.81;4906350;29;19923;-82
2022/07/04 10:03:57;;;;;;;;;;;;;;;22.07;81.87;101185.75;4908351;29;20409;-81
2022/07/04 10:06:24;;;;;;;;;;;;;;;22.10;81.19;101185.22;4911811;29;19926;-80
2022/07/04 10:08:49;;;;;;;;;;;;;;;21.98;80.51;101186.25;4911289;29;19998;-80
2022/07/04 10:11:15;;;;;;;;;;;;;;;21.80;80.19;101186.72;4894143;29;19904;-82
2022/07/04 10:13:40;;;;;;;;;;;;;;;21.54;80.24;101189.28;4924602;29;19930;-81
2022/07/04 10:16:07;;;;;;;;;;;;;;;21.24;81.65;101191.75;4928821;29;19915;-81
2022/07/04 10:18:34;;;;;;;;;;;;;;;21.03;81.94;101182.53;4931050;29;19991;-81
2022/07/04 10:20:59;;;;;;;;;;;;;;;20.85;83.53;101181.81;4918604;29;19923;-80
2022/07/04 10:23:30;;;;;;;;;;;;;;;20.78;84.75;101173.00;4906849;29;20380;-80
2022/07/04 10:25:56;;;;;;;;;;;;;;;20.59;86.10;101180.72;4915301;29;19963;-81
2022/07/04 10:28:21;;;;;;;;;;;;;;;20.70;86.39;101175.38;4912272;29;19908;-82
2022/07/04 10:30:51;;;;;;;;;;;;;;;20.61;87.62;101175.00;4903884;29;19952;-82
2022/07/04 10:33:21;;;;;;;;;;;;;;;20.92;87.12;101169.84;4928759;29;19923;-81
2022/07/04 10:35:50;;;;;;;;;;;;;;;21.04;85.44;101168.59;4940273;29;19975;-82
2022/07/04 10:38:16;;;;;;;;;;;;;;;21.24;85.45;101178.88;4939247;29;19951;-81
2022/07/04 10:40:45;;;;;;;;;;;;;;;21.13;84.08;101176.34;5082109;23;19926;-80
2022/07/04 10:43:42;;;;;;;;;;;;;;;21.31;83.85;101179.47;4944403;29;19994;-79
2022/07/04 10:46:13;;;;;;;;;;;;;;;21.39;83.45;101185.59;5149970;23;19963;-81
2022/07/04 10:49:08;;;;;;;;;;;;;;;21.26;83.95;101181.38;4964070;29;19907;-81
2022/07/04 10:51:46;;;;;;;;;;;;;;;21.21;84.54;101184.88;4946926;28;19930;-82
2022/07/04 11:02:06;;;;;;;;;;;;;;;20.93;84.25;101183.25;5560677;23;19957;-84
2022/07/04 11:07:07;;;;;;;;;;;;;;;20.36;84.54;101197.34;5450576;23;19931;-84
2022/07/04 11:14:46;;;;;;;;;;;;;;;18.51;86.95;101198.19;5018925;23;19911;-82
2022/07/04 11:17:12;;;;;;;;;;;;;;;18.11;89.14;101196.25;4962461;28;19951;-82
2022/07/04 11:19:38;;;;;;;;;;;;;;;17.84;91.26;101209.53;4951429;29;19924;-83
2022/07/04 11:22:05;;;;;;;;;;;;;;;17.75;94.37;101211.78;4958053;28;19914;-82
2022/07/04 11:24:30;;;;;;;;;;;;;;;17.50;99.20;101203.00;4961163;29;19926;-82
2022/07/04 11:26:56;;;;;;;;;;;;;;;17.35;100.00;101206.16;4961659;29;19927;-83
2022/07/04 11:29:21;;;;;;;;;;;;;;;17.20;100.00;101208.53;4959901;29;19907;-82
2022/07/04 11:31:48;;;;;;;;;;;;;;;17.14;100.00;101216.53;4962535;29;19979;-82
2022/07/04 11:34:14;;;;;;;;;;;;;;;17.10;100.00;101211.81;4960308;28;20002;-80
2022/07/04 11:36:40;;;;;;;;;;;;;;;17.01;100.00;101205.03;4937283;29;19919;-81
2022/07/04 11:39:07;;;;;;;;;;;;;;;16.89;100.00;101192.25;4952865;29;19926;-82
2022/07/04 12:03:11;;;;;;;;;;;;;;;18.27;100.00;101175.59;5429900;23;19910;-83
2022/07/04 12:13:22;;;;;;;;;;;;;;;19.49;95.89;101169.66;5226935;23;20134;-82
2022/07/04 12:15:56;;;;;;;;;;;;;;;19.75;95.35;101182.91;4944947;28;19945;-82
2022/07/04 12:18:22;;;;;;;;;;;;;;;20.05;92.77;101179.75;4941496;29;19923;-84
2022/07/04 12:25:58;;;;;;;;;;;;;;;20.61;91.23;101162.16;6025493;23;19917;-81
2022/07/04 12:36:09;;;;;;;;;;;;;;;20.32;89.40;101164.25;5712650;23;19911;-83
2022/07/04 12:48:53;;;;;;;;;;;;;;;20.90;83.37;101155.59;5415495;23;19926;-83
2022/07/04 12:51:20;;;;;;;;;;;;;;;20.93;83.72;101155.09;4998827;28;19945;-84
2022/07/04 12:53:46;;;;;;;;;;;;;;;20.81;83.37;101157.97;4992591;28;19933;-82
2022/07/04 12:56:31;;;;;;;;;;;;;;;20.91;83.33;101159.97;4993416;28;19926;-83
2022/07/04 12:58:57;;;;;;;;;;;;;;;20.87;83.09;101157.75;4975312;28;19926;-82
2022/07/04 13:01:22;;;;;;;;;;;;;;;20.76;82.17;101149.72;4981663;28;19934;-80
2022/07/04 13:03:48;;;;;;;;;;;;;;;20.85;83.79;101154.44;4981049;28;19941;-82
2022/07/04 13:06:13;;;;;;;;;;;;;;;21.11;83.86;101147.28;4996309;28;19937;-82
2022/07/04 13:08:39;;;;;;;;;;;;;;;21.32;84.07;101134.63;4991237;28;19971;-79
2022/07/04 13:13:48;;;;;;;;;;;;;;;20.93;84.87;101131.28;5004795;28;19972;-81
2022/07/04 13:18:48;;;;;;;;;;;;;;;20.86;87.69;101128.78;5030635;23;19923;-80
2022/07/04 13:21:14;;;;;;;;;;;;;;;20.95;87.82;101120.06;4958610;28;19986;-82
2022/07/04 13:26:15;;;;;;;;;;;;;;;20.91;89.18;101114.31;5876312;23;19939;-83
2022/07/04 13:28:41;;;;;;;;;;;;;;;20.86;89.92;101111.50;4951708;29;20003;-83
2022/07/04 13:31:07;;;;;;;;;;;;;;;20.83;90.45;101112.88;4941662;29;19906;-83
2022/07/04 13:33:33;;;;;;;;;;;;;;;20.79;90.15;101116.38;4931444;29;19922;-82
2022/07/04 13:35:58;;;;;;;;;;;;;;;20.79;90.16;101116.38;4940574;29;19915;-83
2022/07/04 13:38:24;;;;;;;;;;;;;;;20.78;89.96;101117.47;4947221;29;19923;-83
2022/07/04 13:40:51;;;;;;;;;;;;;;;20.82;90.07;101121.31;4940733;29;19915;-81
2022/07/04 13:43:16;;;;;;;;;;;;;;;20.80;89.27;101129.00;4944161;29;20056;-82
2022/07/04 13:50:52;;;;;;;;;;;;;;;20.53;88.83;101127.09;5786488;23;19930;-83
2022/07/04 13:53:18;;;;;;;;;;;;;;;20.36;89.44;101131.75;4960410;28;19965;-84
2022/07/04 14:16:36;;;;;;;;;;;;;;;19.62;88.91;101133.00;5288999;23;19931;-83
2022/07/04 14:19:02;;;;;;;;;;;;;;;19.47;87.87;101133.63;4936607;29;19979;-85
2022/07/04 14:21:28;;;;;;;;;;;;;;;19.38;86.62;101137.00;4919989;29;20001;-82
2022/07/04 14:23:54;;;;;;;;;;;;;;;19.30;87.42;101140.16;4920901;29;20000;-83
2022/07/04 14:26:20;;;;;;;;;;;;;;;19.27;88.21;101127.00;4925441;29;19936;-84
2022/07/04 14:28:46;;;;;;;;;;;;;;;19.30;87.83;101127.31;4924600;29;19927;-85
2022/07/04 15:31:18;;;;;;;;;;;;;;;20.45;91.39;101088.41;5882998;23;19910;-82
2022/07/04 15:38:55;;;;;;;;;;;;;;;20.32;91.17;101097.84;5612758;23;19935;-84
2022/07/04 16:00:56;;;;;;;;;;;;;;;19.68;91.89;101096.53;5998344;23;19931;-82
2022/07/04 16:03:22;;;;;;;;;;;;;;;19.66;91.40;101090.47;4961024;28;19911;-83
2022/07/04 16:05:50;;;;;;;;;;;;;;;19.59;91.82;101086.28;5295201;23;19915;-83
2022/07/04 16:10:50;;;;;;;;;;;;;;;19.61;92.22;101087.69;5559403;23;19910;-85
2022/07/04 16:34:53;;;;;;;;;;;;;;;18.52;94.13;101096.28;5825016;23;19918;-83
2022/07/04 16:44:56;;;;;;;;;;;;;;;17.05;100.00;101116.50;5346821;23;19911;-81
2022/07/04 16:49:57;;;;;;;;;;;;;;;16.61;100.00;101096.88;5661915;23;19926;-81
2022/07/04 16:54:58;;;;;;;;;;;;;;;16.36;100.00;101091.63;5030231;23;19937;-80
2022/07/04 16:57:23;;;;;;;;;;;;;;;16.30;100.00;101090.66;4917284;29;19946;-80
2022/07/04 16:59:49;;;;;;;;;;;;;;;16.32;100.00;101085.78;4935572;29;19915;-80
2022/07/04 17:02:16;;;;;;;;;;;;;;;16.31;100.00;101081.44;4944590;29;20296;-81
2022/07/04 17:04:43;;;;;;;;;;;;;;;16.37;100.00;101088.66;4940766;29;19903;-83
2022/07/04 17:07:08;;;;;;;;;;;;;;;16.58;100.00;101079.16;4919939;29;19994;-81
2022/07/04 17:09:34;;;;;;;;;;;;;;;16.81;100.00;101072.97;4939463;29;19923;-81
2022/07/04 17:11:59;;;;;;;;;;;;;;;17.02;100.00;101079.75;4904120;29;20372;-80
2022/07/04 17:14:24;;;;;;;;;;;;;;;17.25;100.00;101081.66;4938483;29;19981;-80
2022/07/04 17:16:50;;;;;;;;;;;;;;;17.48;100.00;101079.97;4924283;29;19907;-82
2022/07/04 17:19:18;;;;;;;;;;;;;;;17.53;100.00;101086.38;5207936;23;19931;-81
2022/07/04 17:22:01;;;;;;;;;;;;;;;17.49;100.00;101078.94;4958135;29;19914;-82
2022/07/04 17:24:27;;;;;;;;;;;;;;;17.53;100.00;101074.66;4925356;29;19907;-82
2022/07/04 17:26:53;;;;;;;;;;;;;;;17.52;100.00;101075.72;4943954;29;19930;-84
2022/07/04 17:29:19;;;;;;;;;;;;;;;17.62;100.00;101075.94;4943527;29;19907;-81
2022/07/04 17:31:44;;;;;;;;;;;;;;;17.63;100.00;101074.88;4943637;29;19954;-81
2022/07/04 17:34:11;;;;;;;;;;;;;;;17.53;100.00;101070.03;4943196;28;19914;-82
2022/07/04 17:36:37;;;;;;;;;;;;;;;17.47;100.00;101072.88;4943479;29;19918;-82
2022/07/04 17:39:03;;;;;;;;;;;;;;;17.47;100.00;101070.16;4937401;29;19953;-82
2022/07/04 17:41:40;;;;;;;;;;;;;;;17.38;100.00;101065.09;4941117;29;19923;-81
2022/07/04 17:44:06;;;;;;;;;;;;;;;17.31;100.00;101077.97;4941598;29;19975;-81